createdAt,value
2019-03-03T00:00:43.846Z,1.60
2019-03-03T00:03:12.076Z,1.32
2019-03-03T00:05:40.296Z,1.50
2019-03-03T00:08:08.554Z,1.42
2019-03-03T00:10:36.784Z,1.62
2019-03-03T00:13:05.076Z,1.60
2019-03-03T00:15:33.446Z,1.57
2019-03-03T00:18:01.699Z,1.70
2019-03-03T00:20:29.916Z,1.85
2019-03-03T00:22:58.169Z,1.67
2019-03-03T00:25:26.388Z,1.75
2019-03-03T00:27:54.617Z,1.50
2019-03-03T00:30:22.848Z,1.52
2019-03-03T00:32:51.069Z,1.35
2019-03-03T00:35:19.298Z,1.87
2019-03-03T00:37:51.834Z,1.57
2019-03-03T00:40:24.675Z,1.57
2019-03-03T00:42:54.526Z,1.35
2019-03-03T00:45:33.657Z,1.90
2019-03-03T00:48:06.396Z,1.50
2019-03-03T00:50:52.545Z,1.42
2019-03-03T00:53:22.404Z,1.02
2019-03-03T00:55:58.554Z,1.42
2019-03-03T00:58:28.433Z,1.45
2019-03-03T01:00:58.308Z,1.20
2019-03-03T01:03:28.178Z,1.47
2019-03-03T01:06:10.326Z,1.05
2019-03-03T01:08:45.930Z,1.55
2019-03-03T01:11:24.715Z,1.32
2019-03-03T01:13:57.288Z,1.27
2019-03-03T01:16:43.620Z,1.65
2019-03-03T01:19:25.783Z,1.70
2019-03-03T01:22:07.656Z,1.35
2019-03-03T01:24:43.306Z,1.30
2019-03-03T01:27:11.617Z,1.82
2019-03-03T01:29:39.859Z,1.22
2019-03-03T01:32:08.084Z,1.42
2019-03-03T01:34:36.312Z,1.52
2019-03-03T01:37:04.582Z,1.90
2019-03-03T01:39:32.857Z,1.50
2019-03-03T01:42:01.071Z,1.67
2019-03-03T01:44:29.320Z,1.37
2019-03-03T01:46:57.575Z,1.62
2019-03-03T01:49:25.787Z,1.67
2019-03-03T01:51:54.025Z,2.22
2019-03-03T01:54:22.252Z,1.57
2019-03-03T01:56:50.494Z,1.35
2019-03-03T01:59:18.741Z,1.57
2019-03-03T02:01:46.959Z,1.42
2019-03-03T02:04:15.192Z,1.50
2019-03-03T02:06:43.434Z,1.72
2019-03-03T02:09:12.043Z,1.40
2019-03-03T02:11:40.344Z,1.65
2019-03-03T02:14:08.595Z,1.50
2019-03-03T02:16:36.818Z,1.60
2019-03-03T02:19:05.031Z,1.55
2019-03-03T02:21:33.334Z,1.62
2019-03-03T02:24:01.614Z,1.35
2019-03-03T02:26:29.876Z,1.30
2019-03-03T02:28:58.091Z,1.50
2019-03-03T02:31:26.398Z,1.77
2019-03-03T02:33:54.638Z,1.50
2019-03-03T02:36:22.857Z,1.45
2019-03-03T02:38:51.164Z,1.67
2019-03-03T02:41:19.409Z,1.85
2019-03-03T02:43:47.699Z,1.55
2019-03-03T02:46:15.973Z,1.42
2019-03-03T02:48:44.225Z,1.90
2019-03-03T02:51:12.462Z,1.60
2019-03-03T02:53:40.668Z,1.75
2019-03-03T02:56:08.918Z,1.80
2019-03-03T02:58:37.156Z,1.12
2019-03-03T03:01:07.102Z,1.80
2019-03-03T03:03:35.311Z,1.52
2019-03-03T03:06:08.430Z,1.82
2019-03-03T03:08:47.294Z,1.60
2019-03-03T03:11:17.166Z,1.62
2019-03-03T03:13:59.028Z,1.30
2019-03-03T03:16:31.677Z,1.42
2019-03-03T03:19:01.554Z,1.60
2019-03-03T03:21:34.666Z,1.45
2019-03-03T03:24:04.530Z,1.50
2019-03-03T03:26:34.393Z,1.47
2019-03-03T03:29:22.624Z,1.70
2019-03-03T03:31:52.501Z,1.60
2019-03-03T03:34:22.372Z,2.00
2019-03-03T03:36:54.654Z,1.55
2019-03-03T03:39:24.508Z,1.47
2019-03-03T03:42:10.696Z,1.70
2019-03-03T03:44:46.534Z,1.30
2019-03-03T03:47:16.408Z,1.62
2019-03-03T03:50:02.503Z,2.05
2019-03-03T03:52:35.748Z,1.65
2019-03-03T03:55:23.993Z,1.92
2019-03-03T03:57:57.038Z,1.82
2019-03-03T04:00:29.413Z,1.75
2019-03-03T04:03:01.970Z,1.77
2019-03-03T04:05:31.849Z,2.00
2019-03-03T04:08:01.706Z,1.82
2019-03-03T04:10:37.560Z,1.62
2019-03-03T04:13:10.076Z,1.72
2019-03-03T04:15:42.944Z,1.67
2019-03-03T04:18:16.037Z,1.87
2019-03-03T04:20:51.833Z,1.70
2019-03-03T04:23:24.668Z,1.70
2019-03-03T04:25:57.494Z,1.80
2019-03-03T04:28:30.016Z,2.35
2019-03-03T04:31:11.813Z,2.10
2019-03-03T04:33:44.677Z,1.92
2019-03-03T04:36:17.292Z,2.05
2019-03-03T04:38:50.381Z,1.42
2019-03-03T04:41:23.198Z,2.02
2019-03-03T04:43:55.956Z,1.50
2019-03-03T04:46:28.560Z,1.47
2019-03-03T04:48:58.429Z,1.90
2019-03-03T04:51:34.127Z,1.57
2019-03-03T04:54:16.344Z,1.60
2019-03-03T04:56:55.447Z,1.75
2019-03-03T04:59:31.020Z,1.87
2019-03-03T05:02:03.927Z,2.30
2019-03-03T05:04:43.004Z,1.50
2019-03-03T05:07:15.584Z,2.15
2019-03-03T05:09:45.444Z,1.80
2019-03-03T05:12:16.778Z,2.00
2019-03-03T05:14:45.254Z,1.47
2019-03-03T05:17:27.071Z,1.80
2019-03-03T05:19:56.948Z,2.37
2019-03-03T05:22:25.186Z,1.98
2019-03-03T05:24:53.406Z,2.22
2019-03-03T05:27:21.650Z,2.02
2019-03-03T05:29:49.902Z,2.17
2019-03-03T05:32:18.124Z,2.30
2019-03-03T05:34:46.386Z,1.92
2019-03-03T05:37:14.604Z,2.00
2019-03-03T05:39:42.829Z,1.87
2019-03-03T05:42:11.086Z,2.02
2019-03-03T05:44:39.309Z,2.17
2019-03-03T05:47:07.539Z,1.75
2019-03-03T05:49:35.784Z,1.80
2019-03-03T05:52:03.994Z,2.33
2019-03-03T05:54:32.253Z,1.92
2019-03-03T05:57:00.478Z,1.82
2019-03-03T05:59:28.721Z,2.08
2019-03-03T06:01:56.954Z,1.50
2019-03-03T06:04:25.179Z,2.25
2019-03-03T06:06:53.423Z,1.90
2019-03-03T06:09:21.631Z,2.05
2019-03-03T06:11:49.879Z,1.77
2019-03-03T06:14:18.117Z,1.60
2019-03-03T06:16:46.342Z,1.72
2019-03-03T06:19:14.581Z,1.60
2019-03-03T06:21:42.821Z,1.65
2019-03-03T06:24:11.054Z,2.22
2019-03-03T06:26:39.292Z,1.95
2019-03-03T06:29:07.532Z,2.02
2019-03-03T06:31:35.765Z,1.95
2019-03-03T06:34:04.004Z,1.55
2019-03-03T06:36:32.300Z,1.67
2019-03-03T06:39:00.525Z,1.95
2019-03-03T06:41:28.750Z,1.70
2019-03-03T06:43:56.989Z,2.15
2019-03-03T06:46:25.198Z,2.00
2019-03-03T06:48:53.439Z,1.77
2019-03-03T06:51:21.657Z,1.77
2019-03-03T06:53:49.884Z,2.60
2019-03-03T06:56:18.112Z,2.17
2019-03-03T06:58:46.386Z,2.22
2019-03-03T07:01:14.622Z,1.87
2019-03-03T07:03:42.828Z,2.45
2019-03-03T07:06:11.072Z,2.25
2019-03-03T07:08:39.305Z,1.80
2019-03-03T07:11:07.569Z,1.77
2019-03-03T07:13:35.793Z,2.15
2019-03-03T07:16:04.018Z,1.87
2019-03-03T07:18:32.254Z,2.02
2019-03-03T07:21:00.483Z,1.92
2019-03-03T07:23:28.694Z,1.90
2019-03-03T07:25:56.941Z,1.77
2019-03-03T07:28:25.192Z,2.80
2019-03-03T07:30:53.422Z,2.98
2019-03-03T07:33:26.268Z,2.58
2019-03-03T07:35:54.483Z,2.00
2019-03-03T07:38:22.708Z,1.75
2019-03-03T07:40:50.938Z,2.05
2019-03-03T07:43:19.192Z,1.80
2019-03-03T07:45:47.431Z,2.70
2019-03-03T07:48:15.664Z,2.10
2019-03-03T07:50:43.883Z,2.10
2019-03-03T07:53:12.109Z,2.20
2019-03-03T07:55:40.348Z,1.80
2019-03-03T07:58:08.572Z,2.10
2019-03-03T08:00:36.820Z,1.90
2019-03-03T08:03:05.045Z,2.20
2019-03-03T08:05:33.288Z,2.65
2019-03-03T08:08:01.530Z,1.82
2019-03-03T08:10:29.776Z,1.75
2019-03-03T08:12:58.026Z,1.90
2019-03-03T08:15:26.253Z,2.72
2019-03-03T08:17:54.488Z,1.82
2019-03-03T08:20:22.925Z,2.45
2019-03-03T08:22:51.189Z,2.40
2019-03-03T08:25:19.415Z,1.85
2019-03-03T08:27:47.656Z,1.90
2019-03-03T08:30:19.267Z,2.35
2019-03-03T08:32:47.542Z,2.87
2019-03-03T08:35:23.055Z,2.90
2019-03-03T08:37:51.288Z,2.30
2019-03-03T08:40:19.495Z,2.22
2019-03-03T08:42:49.472Z,2.17
2019-03-03T08:45:35.462Z,2.20
2019-03-03T08:48:17.504Z,2.47
2019-03-03T08:50:53.272Z,2.33
2019-03-03T08:53:41.028Z,2.45
2019-03-03T08:56:10.900Z,2.27
2019-03-03T08:58:46.715Z,2.00
2019-03-03T09:01:35.192Z,3.58
2019-03-03T09:04:21.284Z,1.80
2019-03-03T09:06:51.172Z,2.35
2019-03-03T09:09:27.349Z,2.17
2019-03-03T09:12:03.453Z,2.20
2019-03-03T09:14:36.562Z,3.55
2019-03-03T09:17:22.887Z,2.15
2019-03-03T09:19:58.728Z,2.25
2019-03-03T09:22:37.386Z,2.55
2019-03-03T09:25:18.620Z,2.17
2019-03-03T09:27:48.511Z,1.75
2019-03-03T09:30:47.060Z,2.15
2019-03-03T09:33:32.303Z,1.65
2019-03-03T09:36:02.182Z,1.87
2019-03-03T09:38:37.879Z,2.22
2019-03-03T09:41:07.740Z,1.98
2019-03-03T09:43:55.962Z,2.60
2019-03-03T09:46:34.826Z,2.00
2019-03-03T09:49:13.631Z,2.02
2019-03-03T09:51:46.468Z,1.70
2019-03-03T09:54:28.306Z,2.33
2019-03-03T09:56:58.186Z,1.98
2019-03-03T09:59:44.358Z,2.15
2019-03-03T10:02:14.226Z,2.33
2019-03-03T10:04:44.104Z,1.80
2019-03-03T10:07:16.967Z,1.95
2019-03-03T10:09:53.034Z,1.60
2019-03-03T10:12:41.338Z,1.65
2019-03-03T10:15:12.189Z,1.80
2019-03-03T10:17:47.764Z,1.67
2019-03-03T10:20:20.228Z,1.55
2019-03-03T10:22:53.064Z,2.08
2019-03-03T10:25:28.910Z,1.62
2019-03-03T10:28:07.883Z,1.72
2019-03-03T10:30:43.852Z,1.98
2019-03-03T10:33:30.077Z,1.82
2019-03-03T10:35:59.960Z,1.85
2019-03-03T10:38:36.155Z,2.27
2019-03-03T10:41:07.353Z,1.90
2019-03-03T10:43:52.346Z,2.00
2019-03-03T10:46:31.292Z,1.70
2019-03-03T10:49:03.648Z,1.80
2019-03-03T10:51:33.553Z,2.33
2019-03-03T10:54:12.478Z,1.62
2019-03-03T10:56:45.080Z,1.57
2019-03-03T10:59:21.148Z,1.47
2019-03-03T11:01:54.228Z,2.08
2019-03-03T11:04:30.064Z,1.72
2019-03-03T11:07:03.046Z,1.62
2019-03-03T11:09:41.828Z,2.08
2019-03-03T11:12:11.818Z,1.57
2019-03-03T11:14:41.711Z,1.40
2019-03-03T11:17:11.587Z,1.70
2019-03-03T11:19:47.393Z,2.37
2019-03-03T11:22:19.935Z,1.82
2019-03-03T11:24:58.835Z,2.20
2019-03-03T11:27:31.391Z,1.70
2019-03-03T11:30:01.275Z,2.15
2019-03-03T11:32:31.126Z,1.20
2019-03-03T11:35:03.758Z,1.65
2019-03-03T11:37:51.736Z,1.40
2019-03-03T11:40:21.620Z,1.47
2019-03-03T11:42:54.137Z,2.47
2019-03-03T11:45:24.015Z,1.35
2019-03-03T11:48:03.658Z,2.10
2019-03-03T11:50:37.726Z,1.30
2019-03-03T11:53:10.754Z,1.32
2019-03-03T11:55:40.658Z,1.47
2019-03-03T11:58:10.524Z,1.37
2019-03-03T12:00:43.287Z,1.37
2019-03-03T12:03:21.890Z,1.52
2019-03-03T12:05:54.763Z,1.37
2019-03-03T12:08:30.344Z,1.75
2019-03-03T12:11:09.411Z,1.40
2019-03-03T12:13:41.706Z,1.17
2019-03-03T12:16:23.694Z,2.40
2019-03-03T12:18:56.373Z,1.35
2019-03-03T12:21:26.226Z,1.20
2019-03-03T12:24:02.126Z,1.00
2019-03-03T12:26:48.381Z,1.57
2019-03-03T12:29:26.974Z,2.15
2019-03-03T12:32:02.752Z,1.12
2019-03-03T12:34:49.140Z,1.25
2019-03-03T12:37:19.882Z,1.45
2019-03-03T12:39:49.756Z,2.15
2019-03-03T12:42:22.391Z,1.20
2019-03-03T12:44:52.245Z,1.90
2019-03-03T12:47:37.204Z,1.37
2019-03-03T12:50:11.966Z,1.35
2019-03-03T12:52:50.910Z,1.75
2019-03-03T12:55:20.797Z,2.02
2019-03-03T12:57:50.668Z,1.60
2019-03-03T13:00:35.579Z,2.08
2019-03-03T13:03:11.328Z,1.55
2019-03-03T13:05:46.877Z,1.87
2019-03-03T13:08:19.672Z,1.87
2019-03-03T13:10:55.554Z,1.42
2019-03-03T13:13:43.525Z,1.87
2019-03-03T13:16:16.325Z,2.50
2019-03-03T13:18:46.189Z,1.62
2019-03-03T13:21:31.145Z,2.52
2019-03-03T13:24:10.043Z,1.55
2019-03-03T13:26:45.950Z,1.92
2019-03-03T13:29:30.958Z,2.25
2019-03-03T13:32:00.816Z,2.15
2019-03-03T13:34:36.708Z,2.25
2019-03-03T13:37:21.925Z,2.33
2019-03-03T13:40:03.777Z,1.75
2019-03-03T13:42:39.344Z,2.20
2019-03-03T13:45:10.736Z,2.22
2019-03-03T13:47:38.975Z,2.12
2019-03-03T13:50:10.442Z,2.20
2019-03-03T13:52:38.705Z,2.35
2019-03-03T13:55:09.846Z,1.90
2019-03-03T13:57:38.093Z,2.20
2019-03-03T14:00:09.516Z,1.65
2019-03-03T14:02:38.054Z,2.22
2019-03-03T14:05:08.321Z,2.20
2019-03-03T14:07:36.558Z,1.72
2019-03-03T14:10:07.718Z,2.20
2019-03-03T14:12:35.969Z,3.40
2019-03-03T14:15:07.019Z,1.90
2019-03-03T14:17:35.250Z,2.00
2019-03-03T14:20:04.613Z,1.82
2019-03-03T14:22:32.850Z,2.15
2019-03-03T14:25:01.105Z,1.80
2019-03-03T14:27:29.337Z,2.40
2019-03-03T14:29:57.580Z,1.80
2019-03-03T14:32:25.803Z,1.90
2019-03-03T14:34:54.053Z,1.75
2019-03-03T14:37:22.289Z,2.30
2019-03-03T14:39:50.566Z,2.42
2019-03-03T14:42:18.782Z,1.90
2019-03-03T14:44:47.034Z,2.20
2019-03-03T14:47:15.279Z,1.82
2019-03-03T14:49:43.511Z,2.75
2019-03-03T14:52:11.756Z,1.42
2019-03-03T14:54:40.000Z,1.45
2019-03-03T14:57:08.260Z,1.92
2019-03-03T14:59:36.491Z,2.15
2019-03-03T15:02:04.752Z,1.80
2019-03-03T15:04:32.979Z,1.62
2019-03-03T15:07:01.216Z,1.50
2019-03-03T15:09:29.469Z,1.52
2019-03-03T15:11:57.735Z,1.98
2019-03-03T15:14:26.031Z,2.30
2019-03-03T15:16:54.278Z,2.00
2019-03-03T15:19:22.504Z,1.70
2019-03-03T15:21:50.767Z,1.50
2019-03-03T15:24:18.983Z,1.85
2019-03-03T15:26:47.222Z,1.52
2019-03-03T15:29:15.463Z,1.67
2019-03-03T15:31:43.689Z,2.00
2019-03-03T15:34:11.932Z,1.60
2019-03-03T15:36:40.165Z,1.80
2019-03-03T15:39:08.423Z,2.00
2019-03-03T15:41:36.897Z,1.57
2019-03-03T15:44:05.301Z,1.70
2019-03-03T15:46:33.562Z,1.67
2019-03-03T15:49:01.786Z,1.90
2019-03-03T15:51:30.025Z,1.75
2019-03-03T15:53:58.829Z,1.65
2019-03-03T15:56:27.078Z,1.65
2019-03-03T15:58:55.940Z,1.98
2019-03-03T16:01:24.337Z,1.98
2019-03-03T16:03:52.596Z,2.30
2019-03-03T16:06:20.825Z,2.05
2019-03-03T16:08:49.087Z,1.87
2019-03-03T16:11:17.321Z,1.65
2019-03-03T16:13:45.569Z,2.08
2019-03-03T16:16:13.810Z,2.17
2019-03-03T16:18:42.077Z,5.65
2019-03-03T16:21:10.301Z,4.85
2019-03-03T16:23:38.566Z,2.22
2019-03-03T16:26:06.783Z,2.10
2019-03-03T16:28:35.020Z,2.30
2019-03-03T16:31:03.260Z,3.00
2019-03-03T16:33:31.531Z,2.85
2019-03-03T16:35:59.760Z,2.08
2019-03-03T16:38:27.983Z,1.80
2019-03-03T16:40:56.250Z,1.55
2019-03-03T16:43:24.489Z,2.62
2019-03-03T16:45:52.730Z,1.95
2019-03-03T16:48:20.962Z,4.00
2019-03-03T16:50:49.208Z,1.77
2019-03-03T16:53:17.452Z,1.52
2019-03-03T16:55:45.700Z,2.10
2019-03-03T16:58:13.935Z,2.35
2019-03-03T17:00:42.154Z,2.25
2019-03-03T17:03:10.397Z,3.17
2019-03-03T17:05:38.629Z,2.22
2019-03-03T17:08:06.874Z,2.37
2019-03-03T17:10:35.095Z,2.40
2019-03-03T17:13:03.346Z,2.72
2019-03-03T17:15:31.585Z,1.75
2019-03-03T17:17:59.804Z,1.57
2019-03-03T17:20:28.059Z,1.37
2019-03-03T17:22:56.283Z,2.50
2019-03-03T17:25:27.021Z,1.60
2019-03-03T17:27:55.254Z,1.40
2019-03-03T17:30:24.649Z,1.75
2019-03-03T17:32:52.874Z,1.67
2019-03-03T17:35:21.101Z,1.87
2019-03-03T17:37:49.354Z,3.58
2019-03-03T17:40:25.629Z,2.30
2019-03-03T17:45:22.454Z,1.77
2019-03-03T17:47:50.755Z,1.72
2019-03-03T17:50:25.025Z,1.85
2019-03-03T17:52:53.260Z,2.98
2019-03-03T17:55:21.493Z,2.27
2019-03-03T17:57:49.755Z,2.45
2019-03-03T18:00:29.187Z,3.20
2019-03-03T18:02:57.434Z,2.45
2019-03-03T18:05:25.670Z,1.95
2019-03-03T18:07:54.007Z,2.17
2019-03-03T18:10:22.431Z,1.75
2019-03-03T18:12:50.677Z,2.47
2019-03-03T18:15:18.914Z,2.10
2019-03-03T18:17:47.222Z,1.70
2019-03-03T18:20:19.838Z,1.37
2019-03-03T18:22:48.085Z,2.55
2019-03-03T18:25:17.662Z,2.45
2019-03-03T18:27:45.882Z,1.50
2019-03-03T18:30:16.409Z,2.35
2019-03-03T18:32:44.680Z,2.52
2019-03-03T18:35:13.147Z,4.00
2019-03-03T18:37:41.506Z,2.12
2019-03-03T18:40:12.211Z,1.87
2019-03-03T18:42:40.442Z,4.15
2019-03-03T18:45:11.266Z,3.98
2019-03-03T18:47:39.576Z,5.53
2019-03-03T18:50:13.613Z,13.90
2019-03-03T18:52:41.865Z,5.30
2019-03-03T18:55:11.281Z,10.60
2019-03-03T18:57:39.799Z,5.45
2019-03-03T19:00:13.531Z,5.42
2019-03-03T19:02:41.800Z,13.10
2019-03-03T19:05:10.131Z,12.78
2019-03-03T19:07:38.367Z,24.20
2019-03-03T19:10:11.896Z,6.08
2019-03-03T19:12:40.121Z,6.33
2019-03-03T19:15:21.087Z,5.70
2019-03-03T19:17:49.323Z,4.00
2019-03-03T19:20:19.201Z,2.67
2019-03-03T19:22:47.484Z,3.20
2019-03-03T19:25:15.902Z,3.60
2019-03-03T19:27:44.164Z,2.62
2019-03-03T19:30:21.401Z,2.67
2019-03-03T19:32:52.667Z,2.00
2019-03-03T19:35:20.926Z,2.20
2019-03-03T19:37:49.182Z,2.67
2019-03-03T19:40:17.494Z,2.20
2019-03-03T19:42:45.726Z,3.08
2019-03-03T19:45:22.684Z,2.65
2019-03-03T19:47:50.929Z,2.10
2019-03-03T19:50:19.170Z,1.85
2019-03-03T19:52:47.382Z,1.60
2019-03-03T19:55:16.959Z,2.20
2019-03-03T19:57:45.180Z,1.42
2019-03-03T20:00:19.529Z,2.72
2019-03-03T20:02:47.782Z,1.75
2019-03-03T20:05:16.010Z,2.00
2019-03-03T20:07:44.253Z,3.30
2019-03-03T20:10:13.346Z,1.98
2019-03-03T20:12:41.579Z,2.67
2019-03-03T20:15:10.297Z,1.87
2019-03-03T20:17:43.048Z,2.62
2019-03-03T20:20:18.647Z,2.77
2019-03-03T20:22:49.522Z,1.80
2019-03-03T20:25:17.791Z,2.25
2019-03-03T20:27:46.018Z,2.40
2019-03-03T20:30:16.707Z,2.37
2019-03-03T20:32:45.024Z,2.72
2019-03-03T20:35:13.351Z,1.87
2019-03-03T20:37:41.585Z,2.52
2019-03-03T20:40:18.236Z,2.90
2019-03-03T20:42:46.474Z,1.92
2019-03-03T20:45:26.913Z,2.08
2019-03-03T20:47:55.145Z,1.80
2019-03-03T20:50:23.382Z,2.52
2019-03-03T20:52:51.615Z,2.25
2019-03-03T20:55:28.131Z,2.17
2019-03-03T20:57:56.363Z,2.20
2019-03-03T21:00:26.145Z,2.02
2019-03-03T21:02:54.374Z,2.98
2019-03-03T21:05:22.617Z,2.62
2019-03-03T21:07:51.917Z,2.15
2019-03-03T21:10:22.875Z,2.72
2019-03-03T21:12:51.108Z,2.45
2019-03-03T21:15:19.336Z,2.67
2019-03-03T21:17:47.646Z,2.12
2019-03-03T21:20:20.991Z,2.35
2019-03-03T21:22:49.305Z,2.67
2019-03-03T21:25:18.371Z,2.42
2019-03-03T21:27:46.615Z,2.42
2019-03-03T21:30:19.409Z,1.80
2019-03-03T21:32:47.670Z,2.67
2019-03-03T21:35:15.910Z,2.30
2019-03-03T21:37:44.151Z,2.75
2019-03-03T21:40:16.641Z,2.08
2019-03-03T21:42:45.117Z,1.67
2019-03-03T21:45:15.287Z,1.98
2019-03-03T21:47:43.786Z,2.33
2019-03-03T21:50:23.328Z,2.47
2019-03-03T21:52:51.575Z,1.98
2019-03-03T21:55:19.813Z,2.20
2019-03-03T21:57:48.057Z,2.42
2019-03-03T22:00:39.034Z,2.52
2019-03-03T22:03:07.258Z,2.17
2019-03-03T22:05:35.691Z,2.72
2019-03-03T22:08:04.088Z,2.33
2019-03-03T22:10:33.194Z,2.42
2019-03-03T22:13:06.742Z,3.15
2019-03-03T22:15:34.980Z,2.12
2019-03-03T22:18:03.212Z,2.27
2019-03-03T22:20:31.473Z,2.92
2019-03-03T22:23:01.478Z,3.10
2019-03-03T22:25:30.342Z,2.25
2019-03-03T22:27:58.580Z,2.33
2019-03-03T22:30:26.794Z,3.00
2019-03-03T22:32:55.050Z,3.00
2019-03-03T22:35:23.273Z,3.35
2019-03-03T22:37:51.529Z,1.95
2019-03-03T22:40:21.395Z,2.02
2019-03-03T22:42:49.659Z,2.80
2019-03-03T22:45:18.238Z,2.22
2019-03-03T22:47:46.483Z,2.15
2019-03-03T22:50:20.840Z,2.47
2019-03-03T22:52:49.080Z,2.45
2019-03-03T22:55:18.350Z,1.77
2019-03-03T22:57:46.591Z,2.15
2019-03-03T23:00:52.335Z,2.10
2019-03-03T23:03:26.819Z,1.65
2019-03-03T23:06:07.505Z,2.85
2019-03-03T23:08:44.790Z,2.08
2019-03-03T23:11:25.405Z,1.90
2019-03-03T23:13:59.600Z,2.12
2019-03-03T23:16:57.951Z,1.85
2019-03-03T23:19:38.574Z,2.15
2019-03-03T23:22:28.491Z,1.85
2019-03-03T23:25:31.815Z,1.87
2019-03-03T23:28:00.048Z,2.02
2019-03-03T23:30:28.303Z,1.98
2019-03-03T23:32:56.535Z,1.80
2019-03-03T23:35:24.803Z,1.72
2019-03-03T23:37:53.030Z,1.77
2019-03-03T23:40:21.267Z,2.10
2019-03-03T23:42:49.518Z,2.10
2019-03-03T23:45:17.758Z,1.87
2019-03-03T23:47:46.015Z,2.00
2019-03-03T23:50:14.266Z,1.65
2019-03-03T23:52:42.488Z,2.10
2019-03-03T23:55:12.566Z,1.90
2019-03-03T23:57:40.809Z,2.02
